sensor_id;sensor_type;location;lat;lon;timestamp;pressure;altitude;pressure_sealevel;temperature;humidity
51528;BME280;37612;51.768;21.590;2022-10-23T00:02:01;99918.89;;;12.11;100.00
51528;BME280;37612;51.768;21.590;2022-10-23T00:06:03;99919.60;;;12.13;100.00
51528;BME280;37612;51.768;21.590;2022-10-23T00:10:05;99923.02;;;12.12;100.00
51528;BME280;37612;51.768;21.590;2022-10-23T00:14:07;99925.33;;;12.12;100.00
51528;BME280;37612;51.768;21.590;2022-10-23T00:18:09;99928.22;;;12.12;100.00
51528;BME280;37612;51.768;21.590;2022-10-23T00:22:10;99931.02;;;12.15;100.00
51528;BME280;37612;51.768;21.590;2022-10-23T00:26:13;99938.67;;;12.15;100.00
51528;BME280;37612;51.768;21.590;2022-10-23T00:30:17;99938.98;;;12.16;100.00
51528;BME280;37612;51.768;21.590;2022-10-23T00:34:19;99940.17;;;12.17;100.00
51528;BME280;37612;51.768;21.590;2022-10-23T00:38:21;99942.04;;;12.19;100.00
51528;BME280;37612;51.768;21.590;2022-10-23T00:42:22;99935.84;;;12.18;100.00
51528;BME280;37612;51.768;21.590;2022-10-23T00:46:24;99941.89;;;12.17;100.00
51528;BME280;37612;51.768;21.590;2022-10-23T00:50:27;99942.75;;;12.17;100.00
51528;BME280;37612;51.768;21.590;2022-10-23T00:54:30;99941.94;;;12.17;100.00
51528;BME280;37612;51.768;21.590;2022-10-23T00:58:33;99947.39;;;12.16;100.00
51528;BME280;37612;51.768;21.590;2022-10-23T01:02:34;99948.24;;;12.15;100.00
51528;BME280;37612;51.768;21.590;2022-10-23T01:10:43;99966.23;;;12.14;100.00
51528;BME280;37612;51.768;21.590;2022-10-23T01:27:22;99983.59;;;12.09;100.00
51528;BME280;37612;51.768;21.590;2022-10-23T01:31:29;99983.33;;;12.08;100.00
51528;BME280;37612;51.768;21.590;2022-10-23T01:35:33;99988.98;;;12.08;100.00
51528;BME280;37612;51.768;21.590;2022-10-23T01:39:39;99990.81;;;12.07;100.00
51528;BME280;37612;51.768;21.590;2022-10-23T01:44:07;99993.48;;;12.06;100.00
51528;BME280;37612;51.768;21.590;2022-10-23T01:48:07;99994.55;;;12.06;100.00
51528;BME280;37612;51.768;21.590;2022-10-23T01:52:10;99993.23;;;12.09;100.00
51528;BME280;37612;51.768;21.590;2022-10-23T01:56:14;99987.73;;;12.09;100.00
51528;BME280;37612;51.768;21.590;2022-10-23T02:00:18;99988.35;;;12.08;100.00
51528;BME280;37612;51.768;21.590;2022-10-23T02:04:22;99996.34;;;12.07;100.00
51528;BME280;37612;51.768;21.590;2022-10-23T02:08:26;100001.56;;;12.07;100.00
51528;BME280;37612;51.768;21.590;2022-10-23T02:24:49;100010.27;;;12.03;100.00
51528;BME280;37612;51.768;21.590;2022-10-23T02:28:53;100017.02;;;12.04;100.00
51528;BME280;37612;51.768;21.590;2022-10-23T02:32:57;100023.11;;;12.04;100.00
51528;BME280;37612;51.768;21.590;2022-10-23T02:37:01;100034.99;;;12.03;100.00
51528;BME280;37612;51.768;21.590;2022-10-23T02:45:16;100037.74;;;12.05;100.00
51528;BME280;37612;51.768;21.590;2022-10-23T02:57:45;100046.68;;;12.07;100.00
51528;BME280;37612;51.768;21.590;2022-10-23T03:01:49;100043.20;;;12.08;100.00
51528;BME280;37612;51.768;21.590;2022-10-23T03:05:52;100047.65;;;12.07;100.00
51528;BME280;37612;51.768;21.590;2022-10-23T03:09:54;100051.49;;;12.06;100.00
51528;BME280;37612;51.768;21.590;2022-10-23T03:13:56;100049.03;;;12.06;100.00
51528;BME280;37612;51.768;21.590;2022-10-23T03:17:57;100053.95;;;12.07;100.00
51528;BME280;37612;51.768;21.590;2022-10-23T03:21:59;100052.80;;;12.09;100.00
51528;BME280;37612;51.768;21.590;2022-10-23T03:26:00;100053.83;;;12.11;100.00
51528;BME280;37612;51.768;21.590;2022-10-23T03:30:02;100055.22;;;12.12;100.00
51528;BME280;37612;51.768;21.590;2022-10-23T03:34:04;100056.13;;;12.13;100.00
51528;BME280;37612;51.768;21.590;2022-10-23T03:38:11;100051.60;;;12.15;100.00
51528;BME280;37612;51.768;21.590;2022-10-23T03:42:12;100054.14;;;12.18;100.00
51528;BME280;37612;51.768;21.590;2022-10-23T03:46:14;100053.65;;;12.19;100.00
51528;BME280;37612;51.768;21.590;2022-10-23T03:50:16;100048.09;;;12.20;100.00
51528;BME280;37612;51.768;21.590;2022-10-23T03:54:18;100050.55;;;12.20;100.00
51528;BME280;37612;51.768;21.590;2022-10-23T03:58:20;100048.66;;;12.18;100.00
51528;BME280;37612;51.768;21.590;2022-10-23T04:02:25;100051.58;;;12.11;100.00
51528;BME280;37612;51.768;21.590;2022-10-23T04:06:27;100054.30;;;12.02;100.00
51528;BME280;37612;51.768;21.590;2022-10-23T04:10:28;100060.52;;;11.94;100.00
51528;BME280;37612;51.768;21.590;2022-10-23T04:14:30;100074.30;;;11.87;100.00
51528;BME280;37612;51.768;21.590;2022-10-23T04:18:32;100076.84;;;11.84;100.00
51528;BME280;37612;51.768;21.590;2022-10-23T04:22:33;100081.87;;;11.84;100.00
51528;BME280;37612;51.768;21.590;2022-10-23T04:26:35;100085.00;;;11.81;100.00
51528;BME280;37612;51.768;21.590;2022-10-23T04:30:36;100089.33;;;11.81;100.00
51528;BME280;37612;51.768;21.590;2022-10-23T04:34:38;100099.52;;;11.84;100.00
51528;BME280;37612;51.768;21.590;2022-10-23T04:38:39;100105.95;;;11.88;100.00
51528;BME280;37612;51.768;21.590;2022-10-23T04:42:41;100112.27;;;11.89;100.00
51528;BME280;37612;51.768;21.590;2022-10-23T04:46:43;100116.09;;;11.92;100.00
51528;BME280;37612;51.768;21.590;2022-10-23T04:50:52;100112.73;;;11.95;100.00
51528;BME280;37612;51.768;21.590;2022-10-23T04:54:54;100115.05;;;11.95;100.00
51528;BME280;37612;51.768;21.590;2022-10-23T04:58:56;100118.66;;;11.92;100.00
51528;BME280;37612;51.768;21.590;2022-10-23T05:02:57;100122.30;;;11.91;100.00
51528;BME280;37612;51.768;21.590;2022-10-23T05:06:59;100129.52;;;11.92;100.00
51528;BME280;37612;51.768;21.590;2022-10-23T05:11:00;100129.08;;;11.90;100.00
51528;BME280;37612;51.768;21.590;2022-10-23T05:15:02;100130.23;;;11.90;100.00
51528;BME280;37612;51.768;21.590;2022-10-23T05:19:04;100135.71;;;11.89;100.00
51528;BME280;37612;51.768;21.590;2022-10-23T05:23:08;100141.77;;;11.90;100.00
51528;BME280;37612;51.768;21.590;2022-10-23T05:27:11;100147.56;;;11.94;100.00
51528;BME280;37612;51.768;21.590;2022-10-23T05:31:12;100154.15;;;11.95;100.00
51528;BME280;37612;51.768;21.590;2022-10-23T05:35:15;100155.91;;;11.94;100.00
51528;BME280;37612;51.768;21.590;2022-10-23T05:39:19;100158.73;;;11.93;100.00
51528;BME280;37612;51.768;21.590;2022-10-23T05:43:21;100157.52;;;11.93;100.00
51528;BME280;37612;51.768;21.590;2022-10-23T05:47:22;100156.39;;;11.93;100.00
51528;BME280;37612;51.768;21.590;2022-10-23T05:51:24;100163.55;;;11.92;100.00
51528;BME280;37612;51.768;21.590;2022-10-23T05:55:26;100168.89;;;11.92;100.00
51528;BME280;37612;51.768;21.590;2022-10-23T05:59:27;100169.70;;;11.93;100.00
51528;BME280;37612;51.768;21.590;2022-10-23T06:03:30;100176.80;;;11.98;100.00
51528;BME280;37612;51.768;21.590;2022-10-23T06:07:31;100177.29;;;12.04;100.00
51528;BME280;37612;51.768;21.590;2022-10-23T06:11:33;100181.89;;;12.04;100.00
51528;BME280;37612;51.768;21.590;2022-10-23T06:15:35;100177.49;;;12.03;100.00
51528;BME280;37612;51.768;21.590;2022-10-23T06:19:37;100177.34;;;12.03;100.00
51528;BME280;37612;51.768;21.590;2022-10-23T06:23:39;100184.56;;;12.04;100.00
51528;BME280;37612;51.768;21.590;2022-10-23T06:27:41;100181.27;;;12.06;100.00
51528;BME280;37612;51.768;21.590;2022-10-23T06:31:42;100187.78;;;12.04;100.00
51528;BME280;37612;51.768;21.590;2022-10-23T06:35:44;100195.89;;;12.03;100.00
51528;BME280;37612;51.768;21.590;2022-10-23T06:39:46;100197.34;;;12.08;100.00
51528;BME280;37612;51.768;21.590;2022-10-23T06:43:48;100198.90;;;12.04;100.00
51528;BME280;37612;51.768;21.590;2022-10-23T06:47:50;100202.04;;;12.00;100.00
51528;BME280;37612;51.768;21.590;2022-10-23T06:51:52;100208.16;;;11.98;100.00
51528;BME280;37612;51.768;21.590;2022-10-23T06:55:57;100211.57;;;12.02;100.00
51528;BME280;37612;51.768;21.590;2022-10-23T06:59:59;100214.38;;;12.05;100.00
51528;BME280;37612;51.768;21.590;2022-10-23T07:04:01;100219.57;;;12.04;100.00
51528;BME280;37612;51.768;21.590;2022-10-23T07:08:03;100219.50;;;12.03;100.00
51528;BME280;37612;51.768;21.590;2022-10-23T07:12:05;100215.81;;;12.04;100.00
51528;BME280;37612;51.768;21.590;2022-10-23T07:16:07;100214.02;;;12.06;100.00
51528;BME280;37612;51.768;21.590;2022-10-23T07:20:09;100217.14;;;12.15;100.00
51528;BME280;37612;51.768;21.590;2022-10-23T07:24:11;100224.33;;;12.23;100.00
51528;BME280;37612;51.768;21.590;2022-10-23T07:28:12;100223.27;;;12.32;100.00
51528;BME280;37612;51.768;21.590;2022-10-23T07:32:14;100221.02;;;12.39;100.00
51528;BME280;37612;51.768;21.590;2022-10-23T07:36:16;100220.28;;;12.48;100.00
51528;BME280;37612;51.768;21.590;2022-10-23T07:40:18;100223.71;;;12.56;100.00
51528;BME280;37612;51.768;21.590;2022-10-23T07:44:19;100214.84;;;12.67;100.00
51528;BME280;37612;51.768;21.590;2022-10-23T07:48:21;100226.10;;;12.79;100.00
51528;BME280;37612;51.768;21.590;2022-10-23T07:52:24;100225.70;;;12.84;100.00
51528;BME280;37612;51.768;21.590;2022-10-23T07:56:26;100230.24;;;12.90;100.00
51528;BME280;37612;51.768;21.590;2022-10-23T08:00:32;100229.84;;;12.98;100.00
51528;BME280;37612;51.768;21.590;2022-10-23T08:04:34;100229.70;;;13.01;100.00
51528;BME280;37612;51.768;21.590;2022-10-23T08:08:35;100228.11;;;13.05;100.00
51528;BME280;37612;51.768;21.590;2022-10-23T08:12:37;100228.03;;;13.11;100.00
51528;BME280;37612;51.768;21.590;2022-10-23T08:16:38;100229.27;;;13.23;100.00
51528;BME280;37612;51.768;21.590;2022-10-23T08:20:41;100230.09;;;13.36;100.00
51528;BME280;37612;51.768;21.590;2022-10-23T08:24:43;100230.52;;;13.51;100.00
51528;BME280;37612;51.768;21.590;2022-10-23T08:28:44;100231.23;;;13.60;100.00
51528;BME280;37612;51.768;21.590;2022-10-23T08:32:46;100230.34;;;13.67;100.00
51528;BME280;37612;51.768;21.590;2022-10-23T08:36:47;100237.07;;;13.76;100.00
51528;BME280;37612;51.768;21.590;2022-10-23T08:40:49;100241.49;;;13.89;100.00
51528;BME280;37612;51.768;21.590;2022-10-23T08:44:54;100242.61;;;13.91;100.00
51528;BME280;37612;51.768;21.590;2022-10-23T08:49:02;100238.16;;;13.92;100.00
51528;BME280;37612;51.768;21.590;2022-10-23T08:57:17;100252.88;;;13.95;100.00
51528;BME280;37612;51.768;21.590;2022-10-23T09:18:53;100263.98;;;13.92;100.00
51528;BME280;37612;51.768;21.590;2022-10-23T09:22:59;100260.18;;;13.95;100.00
51528;BME280;37612;51.768;21.590;2022-10-23T09:27:02;100262.72;;;14.05;100.00
51528;BME280;37612;51.768;21.590;2022-10-23T09:31:08;100268.31;;;14.21;100.00
51528;BME280;37612;51.768;21.590;2022-10-23T09:35:19;100268.21;;;14.34;100.00
51528;BME280;37612;51.768;21.590;2022-10-23T09:39:23;100265.47;;;14.38;100.00
51528;BME280;37612;51.768;21.590;2022-10-23T09:43:26;100264.51;;;14.45;100.00
51528;BME280;37612;51.768;21.590;2022-10-23T09:47:29;100263.99;;;14.58;100.00
51528;BME280;37612;51.768;21.590;2022-10-23T09:51:32;100256.92;;;14.70;100.00
51528;BME280;37612;51.768;21.590;2022-10-23T09:55:37;100256.91;;;14.83;100.00
51528;BME280;37612;51.768;21.590;2022-10-23T09:59:39;100253.86;;;14.93;100.00
51528;BME280;37612;51.768;21.590;2022-10-23T10:03:47;100250.70;;;14.98;100.00
51528;BME280;37612;51.768;21.590;2022-10-23T10:12:48;100255.18;;;15.07;100.00
51528;BME280;37612;51.768;21.590;2022-10-23T10:20:40;100255.59;;;15.26;100.00
51528;BME280;37612;51.768;21.590;2022-10-23T10:25:08;100255.95;;;15.19;100.00
51528;BME280;37612;51.768;21.590;2022-10-23T10:33:23;100255.24;;;15.06;100.00
51528;BME280;37612;51.768;21.590;2022-10-23T10:41:54;100246.81;;;15.01;100.00
51528;BME280;37612;51.768;21.590;2022-10-23T10:46:04;100246.37;;;15.06;100.00
51528;BME280;37612;51.768;21.590;2022-10-23T10:50:16;100241.55;;;15.13;100.00
51528;BME280;37612;51.768;21.590;2022-10-23T11:03:08;100223.89;;;15.77;100.00
51528;BME280;37612;51.768;21.590;2022-10-23T11:07:04;100222.36;;;15.88;100.00
51528;BME280;37612;51.768;21.590;2022-10-23T11:11:12;100221.04;;;15.99;100.00
51528;BME280;37612;51.768;21.590;2022-10-23T11:15:16;100213.02;;;16.06;99.76
51528;BME280;37612;51.768;21.590;2022-10-23T11:19:26;100212.04;;;16.01;99.13
51528;BME280;37612;51.768;21.590;2022-10-23T11:36:42;100209.65;;;15.81;98.18
51528;BME280;37612;51.768;21.590;2022-10-23T11:41:14;100211.45;;;15.84;97.78
51528;BME280;37612;51.768;21.590;2022-10-23T11:49:27;100199.61;;;15.91;97.32
51528;BME280;37612;51.768;21.590;2022-10-23T11:57:33;100195.88;;;15.87;97.06
51528;BME280;37612;51.768;21.590;2022-10-23T12:01:36;100189.67;;;15.88;96.92
51528;BME280;37612;51.768;21.590;2022-10-23T12:05:39;100191.58;;;15.86;96.85
51528;BME280;37612;51.768;21.590;2022-10-23T12:09:43;100194.75;;;15.81;96.41
51528;BME280;37612;51.768;21.590;2022-10-23T12:13:46;100202.73;;;15.77;96.32
51528;BME280;37612;51.768;21.590;2022-10-23T12:17:49;100193.71;;;15.73;96.34
51528;BME280;37612;51.768;21.590;2022-10-23T12:21:52;100180.29;;;15.77;96.14
51528;BME280;37612;51.768;21.590;2022-10-23T12:30:22;100167.79;;;15.85;95.63
51528;BME280;37612;51.768;21.590;2022-10-23T12:38:45;100153.51;;;16.12;95.56
51528;BME280;37612;51.768;21.590;2022-10-23T12:42:53;100154.79;;;16.21;94.75
51528;BME280;37612;51.768;21.590;2022-10-23T12:46:58;100146.75;;;16.26;94.12
51528;BME280;37612;51.768;21.590;2022-10-23T12:51:01;100145.20;;;16.30;93.86
51528;BME280;37612;51.768;21.590;2022-10-23T12:55:12;100145.99;;;16.42;93.75
51528;BME280;37612;51.768;21.590;2022-10-23T12:59:16;100143.17;;;16.44;92.98
51528;BME280;37612;51.768;21.590;2022-10-23T13:03:19;100145.42;;;16.36;92.91
51528;BME280;37612;51.768;21.590;2022-10-23T13:07:25;100147.65;;;16.27;92.64
51528;BME280;37612;51.768;21.590;2022-10-23T13:11:28;100149.69;;;16.23;92.59
51528;BME280;37612;51.768;21.590;2022-10-23T13:15:40;100149.32;;;16.23;92.61
51528;BME280;37612;51.768;21.590;2022-10-23T13:19:42;100148.80;;;16.20;92.46
51528;BME280;37612;51.768;21.590;2022-10-23T13:23:45;100146.70;;;16.13;91.39
51528;BME280;37612;51.768;21.590;2022-10-23T13:27:47;100147.52;;;16.07;91.37
51528;BME280;37612;51.768;21.590;2022-10-23T13:31:50;100146.14;;;16.06;91.56
51528;BME280;37612;51.768;21.590;2022-10-23T13:35:56;100145.99;;;16.03;91.42
51528;BME280;37612;51.768;21.590;2022-10-23T13:40:03;100147.80;;;16.00;91.51
51528;BME280;37612;51.768;21.590;2022-10-23T13:44:05;100146.73;;;15.98;91.50
51528;BME280;37612;51.768;21.590;2022-10-23T13:48:11;100143.55;;;15.92;91.32
51528;BME280;37612;51.768;21.590;2022-10-23T13:52:18;100144.17;;;15.89;91.36
51528;BME280;37612;51.768;21.590;2022-10-23T13:56:23;100139.33;;;15.90;91.39
51528;BME280;37612;51.768;21.590;2022-10-23T14:00:26;100144.25;;;15.91;91.51
51528;BME280;37612;51.768;21.590;2022-10-23T14:04:30;100144.77;;;15.96;91.55
51528;BME280;37612;51.768;21.590;2022-10-23T14:08:32;100146.81;;;15.97;91.14
51528;BME280;37612;51.768;21.590;2022-10-23T14:12:41;100151.14;;;15.99;91.03
51528;BME280;37612;51.768;21.590;2022-10-23T14:16:43;100146.79;;;15.98;90.23
51528;BME280;37612;51.768;21.590;2022-10-23T14:20:45;100149.67;;;16.00;89.82
51528;BME280;37612;51.768;21.590;2022-10-23T14:24:47;100144.15;;;15.99;89.48
51528;BME280;37612;51.768;21.590;2022-10-23T14:28:53;100142.70;;;15.84;88.41
51528;BME280;37612;51.768;21.590;2022-10-23T14:32:54;100139.70;;;15.76;88.63
51528;BME280;37612;51.768;21.590;2022-10-23T14:36:56;100141.34;;;15.73;88.82
51528;BME280;37612;51.768;21.590;2022-10-23T14:41:00;100145.61;;;15.68;89.03
51528;BME280;37612;51.768;21.590;2022-10-23T14:45:01;100147.12;;;15.59;89.15
51528;BME280;37612;51.768;21.590;2022-10-23T14:49:03;100145.64;;;15.47;89.15
51528;BME280;37612;51.768;21.590;2022-10-23T14:53:08;100143.58;;;15.32;89.02
51528;BME280;37612;51.768;21.590;2022-10-23T14:57:09;100142.20;;;15.18;89.12
51528;BME280;37612;51.768;21.590;2022-10-23T15:01:12;100143.33;;;15.07;89.15
51528;BME280;37612;51.768;21.590;2022-10-23T15:05:14;100136.35;;;14.94;89.25
51528;BME280;37612;51.768;21.590;2022-10-23T15:09:16;100135.03;;;14.78;89.33
51528;BME280;37612;51.768;21.590;2022-10-23T15:13:19;100135.09;;;14.60;89.43
51528;BME280;37612;51.768;21.590;2022-10-23T15:17:21;100133.80;;;14.47;89.67
51528;BME280;37612;51.768;21.590;2022-10-23T15:21:23;100134.25;;;14.40;89.77
51528;BME280;37612;51.768;21.590;2022-10-23T15:25:26;100131.96;;;14.28;89.94
51528;BME280;37612;51.768;21.590;2022-10-23T15:29:29;100137.25;;;14.18;90.18
51528;BME280;37612;51.768;21.590;2022-10-23T15:33:30;100134.63;;;14.05;90.28
51528;BME280;37612;51.768;21.590;2022-10-23T15:37:32;100130.65;;;13.93;90.49
51528;BME280;37612;51.768;21.590;2022-10-23T15:41:35;100134.85;;;13.84;90.51
51528;BME280;37612;51.768;21.590;2022-10-23T15:45:39;100134.04;;;13.78;90.75
51528;BME280;37612;51.768;21.590;2022-10-23T15:49:43;100133.77;;;13.73;90.92
51528;BME280;37612;51.768;21.590;2022-10-23T15:53:48;100131.79;;;13.63;90.93
51528;BME280;37612;51.768;21.590;2022-10-23T15:57:50;100137.08;;;13.51;91.33
51528;BME280;37612;51.768;21.590;2022-10-23T16:01:54;100142.69;;;13.41;91.51
51528;BME280;37612;51.768;21.590;2022-10-23T16:05:56;100146.38;;;13.35;91.53
51528;BME280;37612;51.768;21.590;2022-10-23T16:09:57;100149.58;;;13.27;91.41
51528;BME280;37612;51.768;21.590;2022-10-23T16:13:59;100144.73;;;13.16;91.40
51528;BME280;37612;51.768;21.590;2022-10-23T16:18:02;100149.09;;;13.00;91.70
51528;BME280;37612;51.768;21.590;2022-10-23T16:22:03;100148.18;;;12.87;92.20
51528;BME280;37612;51.768;21.590;2022-10-23T16:26:05;100154.09;;;12.79;92.68
51528;BME280;37612;51.768;21.590;2022-10-23T16:30:07;100157.70;;;12.73;92.69
51528;BME280;37612;51.768;21.590;2022-10-23T16:34:10;100158.65;;;12.70;92.80
51528;BME280;37612;51.768;21.590;2022-10-23T16:38:12;100160.14;;;12.67;92.93
51528;BME280;37612;51.768;21.590;2022-10-23T16:42:14;100162.85;;;12.62;93.01
51528;BME280;37612;51.768;21.590;2022-10-23T16:46:17;100169.84;;;12.58;93.24
51528;BME280;37612;51.768;21.590;2022-10-23T16:50:19;100171.55;;;12.50;93.13
51528;BME280;37612;51.768;21.590;2022-10-23T16:54:21;100176.07;;;12.35;92.26
51528;BME280;37612;51.768;21.590;2022-10-23T16:58:23;100183.17;;;12.17;92.62
51528;BME280;37612;51.768;21.590;2022-10-23T17:02:25;100187.38;;;12.07;93.28
51528;BME280;37612;51.768;21.590;2022-10-23T17:06:29;100189.02;;;11.92;93.19
51528;BME280;37612;51.768;21.590;2022-10-23T17:10:31;100190.75;;;11.80;93.42
51528;BME280;37612;51.768;21.590;2022-10-23T17:14:32;100193.07;;;11.76;93.92
51528;BME280;37612;51.768;21.590;2022-10-23T17:18:34;100196.90;;;11.73;94.14
51528;BME280;37612;51.768;21.590;2022-10-23T17:22:36;100203.44;;;11.69;94.35
51528;BME280;37612;51.768;21.590;2022-10-23T17:26:39;100199.80;;;11.65;94.65
51528;BME280;37612;51.768;21.590;2022-10-23T17:30:41;100203.64;;;11.58;94.52
51528;BME280;37612;51.768;21.590;2022-10-23T17:34:42;100204.54;;;11.52;94.49
51528;BME280;37612;51.768;21.590;2022-10-23T17:38:44;100202.29;;;11.51;94.86
51528;BME280;37612;51.768;21.590;2022-10-23T17:42:46;100205.05;;;11.49;95.14
51528;BME280;37612;51.768;21.590;2022-10-23T17:46:51;100204.55;;;11.49;95.98
51528;BME280;37612;51.768;21.590;2022-10-23T17:51:00;100205.14;;;11.54;96.02
51528;BME280;37612;51.768;21.590;2022-10-23T17:55:03;100202.95;;;11.54;95.41
51528;BME280;37612;51.768;21.590;2022-10-23T17:59:06;100201.30;;;11.49;94.75
51528;BME280;37612;51.768;21.590;2022-10-23T18:03:08;100204.31;;;11.37;94.85
51528;BME280;37612;51.768;21.590;2022-10-23T18:07:10;100204.38;;;11.27;94.93
51528;BME280;37612;51.768;21.590;2022-10-23T18:11:15;100202.10;;;11.21;94.99
51528;BME280;37612;51.768;21.590;2022-10-23T18:15:17;100202.52;;;11.18;95.13
51528;BME280;37612;51.768;21.590;2022-10-23T18:19:19;100208.77;;;11.18;95.09
51528;BME280;37612;51.768;21.590;2022-10-23T18:23:21;100205.27;;;11.11;94.98
51528;BME280;37612;51.768;21.590;2022-10-23T18:27:22;100201.52;;;10.99;95.17
51528;BME280;37612;51.768;21.590;2022-10-23T18:31:25;100193.77;;;10.94;95.50
51528;BME280;37612;51.768;21.590;2022-10-23T18:35:27;100190.61;;;10.89;95.47
51528;BME280;37612;51.768;21.590;2022-10-23T18:39:29;100192.06;;;10.86;95.32
51528;BME280;37612;51.768;21.590;2022-10-23T18:43:30;100194.22;;;10.79;95.29
51528;BME280;37612;51.768;21.590;2022-10-23T18:47:32;100190.54;;;10.72;95.61
51528;BME280;37612;51.768;21.590;2022-10-23T18:51:34;100192.61;;;10.67;95.86
51528;BME280;37612;51.768;21.590;2022-10-23T18:55:35;100193.14;;;10.67;96.06
51528;BME280;37612;51.768;21.590;2022-10-23T18:59:37;100196.88;;;10.63;95.42
51528;BME280;37612;51.768;21.590;2022-10-23T19:03:39;100199.52;;;10.58;95.49
51528;BME280;37612;51.768;21.590;2022-10-23T19:07:44;100199.37;;;10.51;95.67
51528;BME280;37612;51.768;21.590;2022-10-23T19:11:46;100195.05;;;10.48;95.80
51528;BME280;37612;51.768;21.590;2022-10-23T19:15:48;100193.09;;;10.44;95.54
51528;BME280;37612;51.768;21.590;2022-10-23T19:19:54;100183.88;;;10.35;95.35
51528;BME280;37612;51.768;21.590;2022-10-23T19:23:58;100174.90;;;10.28;95.32
51528;BME280;37612;51.768;21.590;2022-10-23T19:28:01;100172.24;;;10.19;95.52
51528;BME280;37612;51.768;21.590;2022-10-23T19:32:03;100180.48;;;10.14;95.59
51528;BME280;37612;51.768;21.590;2022-10-23T19:36:05;100183.53;;;10.08;95.57
51528;BME280;37612;51.768;21.590;2022-10-23T19:40:06;100186.07;;;10.03;95.35
51528;BME280;37612;51.768;21.590;2022-10-23T19:44:08;100192.26;;;9.96;95.51
51528;BME280;37612;51.768;21.590;2022-10-23T19:48:10;100194.17;;;9.75;94.63
51528;BME280;37612;51.768;21.590;2022-10-23T19:52:11;100194.44;;;9.54;94.91
51528;BME280;37612;51.768;21.590;2022-10-23T19:56:13;100189.76;;;9.43;95.49
51528;BME280;37612;51.768;21.590;2022-10-23T20:00:15;100184.80;;;9.37;95.51
51528;BME280;37612;51.768;21.590;2022-10-23T20:04:17;100185.27;;;9.31;95.51
51528;BME280;37612;51.768;21.590;2022-10-23T20:08:18;100190.52;;;9.21;95.86
51528;BME280;37612;51.768;21.590;2022-10-23T20:12:20;100194.80;;;9.09;95.74
51528;BME280;37612;51.768;21.590;2022-10-23T20:16:26;100194.28;;;8.94;95.04
51528;BME280;37612;51.768;21.590;2022-10-23T20:20:28;100190.12;;;8.91;95.61
51528;BME280;37612;51.768;21.590;2022-10-23T20:24:29;100188.87;;;8.92;95.67
51528;BME280;37612;51.768;21.590;2022-10-23T20:28:31;100189.13;;;8.87;95.57
51528;BME280;37612;51.768;21.590;2022-10-23T20:32:34;100192.02;;;8.80;95.80
51528;BME280;37612;51.768;21.590;2022-10-23T20:36:39;100184.92;;;8.75;96.02
51528;BME280;37612;51.768;21.590;2022-10-23T20:40:44;100185.58;;;8.75;95.77
51528;BME280;37612;51.768;21.590;2022-10-23T20:44:46;100176.84;;;8.70;95.46
51528;BME280;37612;51.768;21.590;2022-10-23T20:48:47;100180.80;;;8.66;95.79
51528;BME280;37612;51.768;21.590;2022-10-23T20:52:49;100184.74;;;8.59;95.80
51528;BME280;37612;51.768;21.590;2022-10-23T20:56:51;100179.70;;;8.47;96.27
51528;BME280;37612;51.768;21.590;2022-10-23T21:00:52;100177.39;;;8.49;96.75
51528;BME280;37612;51.768;21.590;2022-10-23T21:04:54;100175.75;;;8.56;97.29
51528;BME280;37612;51.768;21.590;2022-10-23T21:08:56;100167.36;;;8.64;97.79
51528;BME280;37612;51.768;21.590;2022-10-23T21:12:58;100164.59;;;8.72;97.70
51528;BME280;37612;51.768;21.590;2022-10-23T21:17:00;100146.56;;;8.75;97.60
51528;BME280;37612;51.768;21.590;2022-10-23T21:21:01;100141.36;;;8.73;97.35
51528;BME280;37612;51.768;21.590;2022-10-23T21:25:03;100144.11;;;8.65;97.31
51528;BME280;37612;51.768;21.590;2022-10-23T21:29:04;100144.89;;;8.64;97.84
51528;BME280;37612;51.768;21.590;2022-10-23T21:33:06;100149.98;;;8.61;97.33
51528;BME280;37612;51.768;21.590;2022-10-23T21:37:08;100152.35;;;8.57;96.80
51528;BME280;37612;51.768;21.590;2022-10-23T21:41:10;100149.42;;;8.54;97.00
51528;BME280;37612;51.768;21.590;2022-10-23T21:45:12;100153.91;;;8.53;97.37
51528;BME280;37612;51.768;21.590;2022-10-23T21:49:14;100156.63;;;8.51;97.02
51528;BME280;37612;51.768;21.590;2022-10-23T21:53:16;100148.21;;;8.50;97.13
51528;BME280;37612;51.768;21.590;2022-10-23T21:57:17;100152.13;;;8.51;97.19
51528;BME280;37612;51.768;21.590;2022-10-23T22:01:19;100147.11;;;8.46;97.07
51528;BME280;37612;51.768;21.590;2022-10-23T22:05:21;100144.48;;;8.36;97.13
51528;BME280;37612;51.768;21.590;2022-10-23T22:09:22;100152.52;;;8.28;97.36
51528;BME280;37612;51.768;21.590;2022-10-23T22:13:24;100141.48;;;8.22;97.07
51528;BME280;37612;51.768;21.590;2022-10-23T22:17:25;100142.69;;;8.21;97.19
51528;BME280;37612;51.768;21.590;2022-10-23T22:21:28;100140.30;;;8.14;96.55
51528;BME280;37612;51.768;21.590;2022-10-23T22:25:30;100142.50;;;8.10;97.01
51528;BME280;37612;51.768;21.590;2022-10-23T22:29:32;100143.02;;;7.99;96.47
51528;BME280;37612;51.768;21.590;2022-10-23T22:33:34;100143.63;;;7.89;96.33
51528;BME280;37612;51.768;21.590;2022-10-23T22:37:35;100139.70;;;7.79;96.26
51528;BME280;37612;51.768;21.590;2022-10-23T22:41:38;100140.59;;;7.71;96.16
51528;BME280;37612;51.768;21.590;2022-10-23T22:45:39;100148.98;;;7.62;96.26
51528;BME280;37612;51.768;21.590;2022-10-23T22:49:41;100145.98;;;7.53;96.18